Terminal Aerodrome Forecast
Issued by NWS Tallahassee, FL

Home | Current Version | Previous Version | Text Only | Print | Product List | Glossary On
Versions: 1 2 3 4 5 6 7 8 9 10 11 12 13 14 15 16 17 18 19 20
000
FTUS42 KTAE 221937 AAA
TAFTLH
TAF AMD
KTLH 221937Z 2220/2318 12008KT 5SM -RA BR FEW010 OVC030
      TEMPO 2220/2222 2SM RA OVC025
     FM230200 04007KT P6SM OVC012
     FM230900 04008KT 5SM BR OVC007
     FM231600 06009KT P6SM SCT008 BKN015=

USA.gov is the U.S. government's official web portal to all federal, state and local government web resources and services.